Time;durP1;ratioP1;P1;durP2;ratioP2;P2;SDS_P1;SDS_P2;PMS_P1;PMS_P2;Temp;Humidity;BMP_temperature;BMP_pressure;BME280_temperature;BME280_humidity;BME280_pressure;Samples;Min_cycle;Max_cycle;Signal;HPM_P1;HPM_P2
2022/11/13 00:02:33;;;;;;;9.45;5.57;;;5.50;99.90;;;;;;7348937;32;20218;-58
2022/11/13 00:06:35;;;;;;;12.07;5.55;;;5.50;99.90;;;;;;7351282;32;20103;-58
2022/11/13 00:10:37;;;;;;;10.93;5.97;;;5.40;99.90;;;;;;7353121;32;20111;-58
2022/11/13 00:14:39;;;;;;;9.82;5.90;;;5.40;99.90;;;;;;7353920;32;20098;-59
2022/11/13 00:18:40;;;;;;;10.43;6.18;;;5.40;99.90;;;;;;7347240;32;20201;-59
2022/11/13 00:22:42;;;;;;;11.27;6.55;;;5.40;99.90;;;;;;7350039;32;20240;-59
2022/11/13 00:26:44;;;;;;;11.07;6.20;;;5.40;99.90;;;;;;7352849;32;21969;-59
2022/11/13 00:30:45;;;;;;;10.15;6.80;;;5.40;99.90;;;;;;7352631;32;20122;-58
2022/11/13 00:34:47;;;;;;;10.15;7.03;;;5.40;99.90;;;;;;7349183;32;20119;-58
2022/11/13 00:38:50;;;;;;;12.23;7.37;;;5.30;99.90;;;;;;7348944;32;20178;-58
2022/11/13 00:42:51;;;;;;;12.73;7.12;;;5.30;99.90;;;;;;7349238;32;20133;-59
2022/11/13 00:46:53;;;;;;;10.75;7.03;;;5.30;99.90;;;;;;7362149;32;20119;-58
2022/11/13 00:50:55;;;;;;;8.13;6.03;;;5.40;99.90;;;;;;7349208;32;20261;-58
2022/11/13 00:54:56;;;;;;;12.20;6.82;;;5.30;99.90;;;;;;7354643;32;20178;-58
2022/11/13 00:58:58;;;;;;;9.63;6.10;;;5.30;99.90;;;;;;7348708;32;20103;-59
2022/11/13 01:03:00;;;;;;;11.10;5.47;;;5.40;99.90;;;;;;7353627;32;20258;-58
2022/11/13 01:07:02;;;;;;;10.07;5.57;;;5.30;99.90;;;;;;7352364;32;20213;-59
2022/11/13 01:11:30;;;;;;;13.23;5.53;;;5.40;99.90;;;;;;7353051;32;20301;-59
2022/11/13 01:15:32;;;;;;;11.68;5.50;;;5.40;99.90;;;;;;7345344;32;20217;-58
2022/11/13 01:19:34;;;;;;;10.10;5.10;;;5.30;99.90;;;;;;7352894;32;20206;-58
2022/11/13 01:23:35;;;;;;;9.15;4.72;;;5.30;99.90;;;;;;7345960;32;20229;-58
2022/11/13 01:27:37;;;;;;;6.97;4.57;;;5.30;99.90;;;;;;7347901;32;20092;-58
2022/11/13 01:31:39;;;;;;;8.77;4.45;;;5.40;99.90;;;;;;7352156;32;20174;-58
2022/11/13 01:35:41;;;;;;;10.02;4.30;;;5.40;99.90;;;;;;7352266;32;20103;-59
2022/11/13 01:39:42;;;;;;;7.10;3.83;;;5.40;99.90;;;;;;7349824;32;20098;-58
2022/11/13 01:43:44;;;;;;;7.45;4.12;;;5.40;99.90;;;;;;7350900;32;20183;-58
2022/11/13 01:47:46;;;;;;;10.13;4.45;;;5.40;99.90;;;;;;7353165;32;20099;-59
2022/11/13 01:51:52;;;;;;;10.48;4.03;;;5.40;99.90;;;;;;7351704;32;20119;-59
2022/11/13 01:55:53;;;;;;;7.87;4.50;;;5.40;99.90;;;;;;7352473;32;20220;-58
2022/11/13 02:00:02;;;;;;;8.90;4.53;;;5.40;99.90;;;;;;7347122;32;20142;-58
2022/11/13 02:04:04;;;;;;;6.60;3.85;;;5.40;99.90;;;;;;7354531;32;20590;-58
2022/11/13 02:08:06;;;;;;;8.40;3.83;;;5.40;99.90;;;;;;7346481;32;20129;-59
2022/11/13 02:12:12;;;;;;;6.50;4.10;;;5.40;99.90;;;;;;7351543;32;20103;-58
2022/11/13 02:16:15;;;;;;;8.07;4.80;;;5.40;99.90;;;;;;7349779;32;20121;-58
2022/11/13 02:20:40;;;;;;;8.38;4.18;;;5.40;99.90;;;;;;7350151;32;20123;-58
2022/11/13 02:24:46;;;;;;;8.85;4.22;;;5.30;99.90;;;;;;7345983;32;20125;-59
2022/11/13 02:28:54;;;;;;;6.60;4.95;;;5.30;99.90;;;;;;7350184;32;20185;-58
2022/11/13 02:32:57;;;;;;;7.50;4.97;;;5.40;99.90;;;;;;7351918;32;20414;-58
2022/11/13 02:36:59;;;;;;;9.60;5.10;;;5.30;99.90;;;;;;7346425;32;20126;-59
2022/11/13 02:41:00;;;;;;;7.12;4.78;;;5.30;99.90;;;;;;7350020;32;20115;-59
2022/11/13 02:45:03;;;;;;;11.27;5.50;;;5.30;99.90;;;;;;7349530;32;20100;-58
2022/11/13 02:49:06;;;;;;;9.90;4.95;;;5.30;99.90;;;;;;7350668;32;20122;-58
2022/11/13 02:53:08;;;;;;;8.60;5.03;;;5.20;99.90;;;;;;7345456;32;20178;-59
2022/11/13 02:57:09;;;;;;;8.75;4.97;;;5.20;99.90;;;;;;7354280;32;20190;-58
2022/11/13 03:01:11;;;;;;;8.20;5.25;;;5.10;99.90;;;;;;7352947;32;20130;-59
2022/11/13 03:05:13;;;;;;;10.82;5.15;;;5.20;99.90;;;;;;7345537;32;20633;-59
2022/11/13 03:09:15;;;;;;;9.30;5.15;;;5.10;99.90;;;;;;7344966;32;20209;-59
2022/11/13 03:13:17;;;;;;;8.77;4.87;;;5.00;99.90;;;;;;7346488;32;22409;-59
2022/11/13 03:17:19;;;;;;;8.70;5.10;;;5.00;99.90;;;;;;7353183;32;20103;-59
2022/11/13 03:21:20;;;;;;;9.57;5.87;;;5.00;99.90;;;;;;7344362;32;20206;-61
2022/11/13 03:25:22;;;;;;;8.38;4.93;;;4.90;99.90;;;;;;7349752;32;20099;-60
2022/11/13 03:29:24;;;;;;;12.18;5.35;;;4.90;99.90;;;;;;7359312;32;20598;-59
2022/11/13 03:33:25;;;;;;;7.18;4.72;;;4.90;99.90;;;;;;7353154;32;20699;-59
2022/11/13 03:37:27;;;;;;;8.25;4.47;;;4.80;99.90;;;;;;7353435;32;20279;-59
2022/11/13 03:41:29;;;;;;;7.57;4.37;;;4.80;99.90;;;;;;7358113;32;20107;-59
2022/11/13 03:45:30;;;;;;;8.13;5.15;;;4.70;99.90;;;;;;7343936;32;20263;-60
2022/11/13 03:49:32;;;;;;;8.70;4.85;;;4.70;99.90;;;;;;7346924;32;20186;-59
2022/11/13 03:53:34;;;;;;;9.68;5.15;;;4.70;99.90;;;;;;7348112;32;20661;-60
2022/11/13 03:57:35;;;;;;;8.10;5.25;;;4.60;99.90;;;;;;7349747;32;20153;-59
2022/11/13 04:01:37;;;;;;;8.57;4.85;;;4.50;99.90;;;;;;7358200;32;20099;-59
2022/11/13 04:05:41;;;;;;;10.02;4.47;;;4.40;99.90;;;;;;7351263;32;20558;-59
2022/11/13 04:09:43;;;;;;;9.20;5.05;;;4.40;99.90;;;;;;7351831;32;20118;-59
2022/11/13 04:13:45;;;;;;;8.77;4.87;;;4.40;99.90;;;;;;7356804;32;20108;-60
2022/11/13 04:17:47;;;;;;;12.02;4.93;;;4.30;99.90;;;;;;7350606;32;20581;-59
2022/11/13 04:21:49;;;;;;;9.43;5.00;;;4.30;99.90;;;;;;7346893;32;20528;-59
2022/11/13 04:25:51;;;;;;;8.43;4.90;;;4.20;99.90;;;;;;7357875;32;20100;-60
2022/11/13 04:29:53;;;;;;;8.18;4.30;;;4.10;99.90;;;;;;7352235;32;20508;-59
2022/11/13 04:33:54;;;;;;;8.73;4.43;;;4.10;99.90;;;;;;7354713;32;20106;-59
2022/11/13 04:37:56;;;;;;;8.27;4.72;;;4.10;99.90;;;;;;7349802;32;20111;-59
2022/11/13 04:46:18;;;;;;;7.60;4.43;;;4.10;99.90;;;;;;7351424;32;20100;-60
2022/11/13 04:50:20;;;;;;;8.93;4.40;;;4.00;99.90;;;;;;7356582;32;20131;-60
2022/11/13 04:54:22;;;;;;;7.45;4.25;;;4.00;99.90;;;;;;7353225;32;20127;-59
2022/11/13 04:58:29;;;;;;;6.97;4.37;;;3.90;99.90;;;;;;7351674;32;20125;-59
2022/11/13 05:02:31;;;;;;;9.18;4.30;;;3.90;99.90;;;;;;7352560;32;20213;-59
2022/11/13 05:06:33;;;;;;;9.07;4.07;;;3.90;99.90;;;;;;7354685;32;20197;-57
2022/11/13 05:10:35;;;;;;;7.15;3.60;;;3.80;99.90;;;;;;7349302;32;20134;-57
2022/11/13 05:14:38;;;;;;;8.13;3.78;;;3.80;99.90;;;;;;7356655;32;20102;-57
2022/11/13 05:18:40;;;;;;;7.47;3.58;;;3.80;99.90;;;;;;7352378;32;20575;-57
2022/11/13 05:22:42;;;;;;;6.95;3.78;;;3.80;99.90;;;;;;7352857;32;20102;-58
2022/11/13 05:26:43;;;;;;;8.80;4.10;;;3.80;99.90;;;;;;7349760;32;20125;-57
2022/11/13 05:30:45;;;;;;;9.95;3.25;;;3.70;99.90;;;;;;7348522;32;20547;-57
2022/11/13 05:34:47;;;;;;;5.50;3.40;;;3.70;99.90;;;;;;7349978;32;20214;-57
2022/11/13 05:38:49;;;;;;;5.37;3.20;;;3.70;99.90;;;;;;7349504;32;20120;-57
2022/11/13 05:42:52;;;;;;;5.40;2.90;;;3.60;99.90;;;;;;7349315;32;20216;-61
2022/11/13 05:46:54;;;;;;;5.57;3.05;;;3.60;99.90;;;;;;7342480;32;20228;-59
2022/11/13 05:51:09;;;;;;;4.65;3.22;;;3.50;99.90;;;;;;7350342;32;20192;-59
2022/11/13 05:55:11;;;;;;;4.82;2.92;;;3.50;99.90;;;;;;7343928;32;20234;-61
2022/11/13 05:59:13;;;;;;;6.47;3.17;;;3.50;99.90;;;;;;7351487;32;20557;-60
2022/11/13 06:03:14;;;;;;;5.40;2.97;;;3.30;99.90;;;;;;7351660;32;20149;-59
2022/11/13 06:07:16;;;;;;;6.68;3.87;;;3.30;99.90;;;;;;7346289;32;20124;-59
2022/11/13 06:11:20;;;;;;;7.82;4.72;;;3.20;99.90;;;;;;7343359;32;20123;-59
2022/11/13 06:15:22;;;;;;;5.75;3.45;;;3.20;99.90;;;;;;7350868;32;20174;-59
2022/11/13 06:19:24;;;;;;;8.18;3.65;;;3.20;99.90;;;;;;7349767;32;20150;-59
2022/11/13 06:23:25;;;;;;;5.20;2.55;;;3.10;99.90;;;;;;7351315;32;20190;-58
2022/11/13 06:27:27;;;;;;;14.77;11.00;;;3.00;99.90;;;;;;7352092;32;20115;-60
2022/11/13 06:31:31;;;;;;;15.98;13.00;;;3.00;99.90;;;;;;7343165;32;20115;-60
2022/11/13 06:35:33;;;;;;;11.48;9.95;;;3.00;99.90;;;;;;7345953;32;20182;-59
2022/11/13 06:39:35;;;;;;;11.15;6.80;;;2.90;99.90;;;;;;7340300;32;20234;-59
2022/11/13 06:43:37;;;;;;;9.00;6.20;;;2.90;99.90;;;;;;7342621;32;20518;-60
2022/11/13 06:47:38;;;;;;;8.38;5.25;;;2.90;99.90;;;;;;7344675;32;20104;-60
2022/11/13 06:51:40;;;;;;;7.62;4.20;;;2.90;99.90;;;;;;7347915;32;20108;-61
2022/11/13 06:55:47;;;;;;;7.25;3.55;;;2.80;99.90;;;;;;7346209;32;20526;-60
2022/11/13 06:59:49;;;;;;;4.55;2.37;;;2.80;99.90;;;;;;7353696;32;20187;-60
2022/11/13 07:03:50;;;;;;;5.87;2.85;;;2.80;99.90;;;;;;7353353;32;20237;-60
2022/11/13 07:07:52;;;;;;;8.30;3.05;;;2.90;99.90;;;;;;7350834;32;20195;-60
2022/11/13 07:11:54;;;;;;;11.65;5.55;;;2.80;99.90;;;;;;7351826;32;20149;-60
2022/11/13 07:16:01;;;;;;;11.75;4.85;;;2.90;99.90;;;;;;7353768;32;20126;-60
2022/11/13 07:20:16;;;;;;;6.78;3.60;;;2.80;99.90;;;;;;7349648;32;20119;-60
2022/11/13 07:24:18;;;;;;;6.20;2.83;;;2.80;99.90;;;;;;7353698;32;20138;-60
2022/11/13 07:28:20;;;;;;;6.12;3.25;;;2.80;99.90;;;;;;7353048;32;20559;-60
2022/11/13 07:32:21;;;;;;;20.48;10.80;;;2.90;99.90;;;;;;7346636;32;20100;-62
2022/11/13 07:36:23;;;;;;;8.20;3.78;;;2.80;99.90;;;;;;7353591;32;20301;-62
2022/11/13 07:40:25;;;;;;;6.05;3.17;;;2.90;99.90;;;;;;7348444;32;20141;-62
2022/11/13 07:44:27;;;;;;;8.00;3.20;;;2.90;99.90;;;;;;7353324;32;20100;-62
2022/11/13 07:48:48;;;;;;;10.52;4.30;;;2.90;99.90;;;;;;7352472;32;20095;-63
2022/11/13 07:52:55;;;;;;;12.77;5.12;;;2.90;99.90;;;;;;7347030;32;20213;-61
2022/11/13 07:56:56;;;;;;;15.70;5.70;;;3.00;99.90;;;;;;7347817;32;20108;-60
2022/11/13 08:01:03;;;;;;;12.05;4.72;;;3.00;99.90;;;;;;7350840;32;20099;-59
2022/11/13 08:05:05;;;;;;;5.00;3.20;;;3.10;99.90;;;;;;7353399;32;20557;-59
2022/11/13 08:09:07;;;;;;;10.30;4.50;;;3.20;99.90;;;;;;7343856;32;20129;-59
2022/11/13 08:13:10;;;;;;;9.65;4.05;;;3.30;99.90;;;;;;7348450;32;21332;-59
2022/11/13 08:17:11;;;;;;;6.22;3.47;;;3.30;99.90;;;;;;7350262;32;20210;-60
2022/11/13 08:21:13;;;;;;;5.55;2.62;;;3.40;99.90;;;;;;7347079;32;20103;-61
2022/11/13 08:25:16;;;;;;;4.00;2.28;;;3.50;99.90;;;;;;7346263;32;20581;-59
2022/11/13 08:29:18;;;;;;;5.30;2.70;;;3.60;99.90;;;;;;7346780;32;20473;-59
2022/11/13 08:33:20;;;;;;;7.10;3.15;;;3.60;99.90;;;;;;7351490;32;20111;-59
2022/11/13 08:37:21;;;;;;;8.25;2.70;;;3.80;99.90;;;;;;7351033;32;20696;-61
2022/11/13 08:41:23;;;;;;;7.47;4.70;;;3.90;99.90;;;;;;7345747;32;20726;-60
2022/11/13 08:45:25;;;;;;;9.15;4.07;;;4.10;99.90;;;;;;7344459;32;20163;-60
2022/11/13 08:49:27;;;;;;;6.22;3.55;;;4.20;99.90;;;;;;7353257;32;20787;-60
2022/11/13 08:53:28;;;;;;;7.53;3.47;;;4.30;99.90;;;;;;7352139;32;20129;-60
2022/11/13 08:57:30;;;;;;;5.97;3.40;;;4.40;99.90;;;;;;7348601;32;20188;-61
2022/11/13 09:01:32;;;;;;;7.12;3.70;;;4.60;99.90;;;;;;7346702;32;20198;-60
2022/11/13 09:05:34;;;;;;;8.23;4.28;;;4.70;99.90;;;;;;7349183;32;20206;-60
2022/11/13 09:09:36;;;;;;;7.72;4.03;;;4.90;99.90;;;;;;7346906;32;20129;-60
2022/11/13 09:13:37;;;;;;;15.65;10.07;;;5.10;99.90;;;;;;7351855;32;20130;-60
2022/11/13 09:17:46;;;;;;;12.43;8.15;;;5.30;99.90;;;;;;7349989;32;20103;-60
2022/11/13 09:21:47;;;;;;;6.68;5.00;;;5.50;99.90;;;;;;7346386;32;20217;-60
2022/11/13 09:25:49;;;;;;;9.98;4.50;;;5.80;99.90;;;;;;7352666;32;20106;-60
2022/11/13 09:29:51;;;;;;;5.22;3.92;;;6.10;99.90;;;;;;7343511;32;20103;-61
2022/11/13 09:33:56;;;;;;;6.47;3.47;;;6.30;99.90;;;;;;7350550;32;21995;-60
2022/11/13 09:37:59;;;;;;;6.62;3.55;;;6.40;99.90;;;;;;7349072;32;20122;-59
2022/11/13 09:42:22;;;;;;;5.30;3.15;;;6.60;99.90;;;;;;7348747;32;20202;-60
2022/11/13 09:46:36;;;;;;;5.12;2.78;;;7.00;99.90;;;;;;7342537;32;20190;-62
2022/11/13 09:50:39;;;;;;;5.57;2.83;;;7.40;99.90;;;;;;7346035;32;20552;-60
2022/11/13 09:54:41;;;;;;;3.97;2.25;;;7.70;99.90;;;;;;7347595;32;20139;-61
2022/11/13 09:59:11;;;;;;;6.35;3.70;;;7.80;99.90;;;;;;7344927;32;20112;-61
2022/11/13 10:03:28;;;;;;;6.85;3.65;;;8.10;99.90;;;;;;7327572;32;20536;-61
2022/11/13 10:07:56;;;;;;;5.35;3.42;;;8.40;99.90;;;;;;7340072;32;20114;-62
2022/11/13 10:12:03;;;;;;;6.12;3.20;;;8.70;99.90;;;;;;7343438;32;20175;-60
2022/11/13 10:16:35;;;;;;;7.68;3.47;;;8.90;99.90;;;;;;7347285;32;20107;-61
2022/11/13 10:20:47;;;;;;;5.97;3.10;;;9.10;99.90;;;;;;7343561;32;20110;-60
2022/11/13 10:24:53;;;;;;;5.47;2.78;;;9.20;99.90;;;;;;7347958;32;20130;-61
2022/11/13 10:29:04;;;;;;;9.00;3.40;;;9.50;99.90;;;;;;7345588;32;20138;-60
2022/11/13 10:33:08;;;;;;;3.75;2.10;;;9.80;99.90;;;;;;7341512;32;20133;-61
2022/11/13 10:37:43;;;;;;;3.58;1.60;;;10.20;99.90;;;;;;7349788;32;20119;-60
2022/11/13 10:41:51;;;;;;;4.15;2.15;;;10.40;99.90;;;;;;7348679;32;20130;-62
2022/11/13 10:45:56;;;;;;;2.92;1.60;;;10.60;99.90;;;;;;7348071;32;20130;-61
2022/11/13 10:50:17;;;;;;;3.55;2.00;;;11.00;99.90;;;;;;7354311;32;20142;-60
2022/11/13 10:54:33;;;;;;;2.78;1.60;;;11.10;99.90;;;;;;7343875;32;20186;-60
2022/11/13 10:58:35;;;;;;;2.28;1.00;;;11.20;99.90;;;;;;7353301;32;20126;-59
2022/11/13 11:02:37;;;;;;;2.58;1.42;;;11.30;99.90;;;;;;7351448;32;20103;-60
2022/11/13 11:06:40;;;;;;;3.70;2.03;;;11.50;99.90;;;;;;7356151;32;20133;-60
2022/11/13 11:15:43;;;;;;;2.08;1.35;;;11.80;99.90;;;;;;7353277;32;20228;-61
2022/11/13 11:19:57;;;;;;;2.28;1.15;;;12.00;99.90;;;;;;7356890;32;20229;-62
2022/11/13 11:24:01;;;;;;;7.70;5.68;;;12.10;99.90;;;;;;7358064;32;20111;-62
2022/11/13 11:28:34;;;;;;;5.37;3.55;;;12.30;99.90;;;;;;7348451;32;20142;-61
2022/11/13 11:33:01;;;;;;;4.62;1.27;;;12.40;99.90;;;;;;7340310;32;20468;-61
2022/11/13 11:37:13;;;;;;;3.70;1.20;;;12.50;99.90;;;;;;7352615;32;20202;-62
2022/11/13 11:41:19;;;;;;;1.90;0.98;;;12.60;99.90;;;;;;7356293;32;20153;-61
2022/11/13 11:45:38;;;;;;;4.57;2.20;;;12.70;99.90;;;;;;7355787;32;20531;-62
2022/11/13 11:49:42;;;;;;;3.53;1.67;;;12.80;99.90;;;;;;7355218;32;20119;-60
2022/11/13 11:54:27;;;;;;;4.10;1.75;;;13.00;99.90;;;;;;7356742;32;20114;-61
2022/11/13 11:58:56;;;;;;;3.95;1.80;;;13.00;99.90;;;;;;7355492;32;20171;-62
2022/11/13 12:03:49;;;;;;;2.53;1.55;;;13.20;99.90;;;;;;7352790;32;20107;-61
2022/11/13 12:08:05;;;;;;;3.65;1.65;;;13.20;99.90;;;;;;7332241;32;20141;-64
2022/11/13 12:12:30;;;;;;;3.72;2.53;;;13.20;99.90;;;;;;7348188;32;20764;-61
2022/11/13 12:16:58;;;;;;;3.33;1.80;;;13.30;99.90;;;;;;7322384;32;20099;-60
2022/11/13 12:21:23;;;;;;;3.08;1.73;;;13.30;99.90;;;;;;7351552;32;20125;-61
2022/11/13 12:25:37;;;;;;;2.78;1.35;;;13.60;99.90;;;;;;7332830;32;20191;-61
2022/11/13 12:29:44;;;;;;;4.55;1.62;;;13.70;99.90;;;;;;7350479;32;20104;-57
2022/11/13 12:34:04;;;;;;;2.03;1.37;;;13.90;99.90;;;;;;7341768;32;20100;-62
2022/11/13 12:38:17;;;;;;;5.35;1.98;;;14.00;99.90;;;;;;7350320;32;20174;-61
2022/11/13 12:42:24;;;;;;;2.97;1.70;;;14.00;99.90;;;;;;7345221;32;20519;-62
2022/11/13 12:46:35;;;;;;;8.55;4.03;;;14.00;99.90;;;;;;7354185;32;20556;-62
2022/11/13 12:50:37;;;;;;;3.47;1.98;;;14.10;99.90;;;;;;7351781;32;20542;-61
2022/11/13 12:54:38;;;;;;;2.85;1.65;;;14.00;99.90;;;;;;7346610;32;20103;-61
2022/11/13 12:58:59;;;;;;;3.50;1.40;;;14.10;99.90;;;;;;7350373;32;20096;-61
2022/11/13 13:03:39;;;;;;;3.87;1.62;;;14.00;99.90;;;;;;7346214;32;20218;-60
2022/11/13 13:07:41;;;;;;;3.65;1.60;;;14.30;99.90;;;;;;7355297;32;20508;-62
2022/11/13 13:11:50;;;;;;;3.10;1.58;;;14.50;99.90;;;;;;7353558;32;20190;-62
2022/11/13 13:15:58;;;;;;;12.15;7.35;;;14.40;99.90;;;;;;7337629;32;20218;-60
2022/11/13 13:20:09;;;;;;;2.78;1.77;;;14.60;99.90;;;;;;7340387;32;20107;-60
2022/11/13 13:24:29;;;;;;;2.95;1.65;;;14.70;99.90;;;;;;7340475;32;20131;-61
2022/11/13 13:28:37;;;;;;;17.87;11.50;;;14.90;99.90;;;;;;7345824;32;20115;-61
2022/11/13 13:32:38;;;;;;;;;;;15.40;99.90;;;;;;7351005;32;20108;-60
2022/11/13 13:36:47;;;;;;;5.72;2.50;;;16.10;99.90;;;;;;7354142;32;20649;-62
2022/11/13 13:41:05;;;;;;;4.18;3.05;;;16.20;99.90;;;;;;7347131;32;20114;-60
2022/11/13 13:45:29;;;;;;;4.28;2.65;;;16.70;99.90;;;;;;7353829;32;20120;-61
2022/11/13 13:49:32;;;;;;;4.90;2.90;;;17.20;99.90;;;;;;7353912;32;20149;-63
2022/11/13 13:53:35;;;;;;;8.23;3.33;;;17.80;99.90;;;;;;7340373;32;20225;-61
2022/11/13 13:57:40;;;;;;;6.37;4.75;;;18.10;99.90;;;;;;7346595;32;20111;-61
2022/11/13 14:01:57;;;;;;;6.15;4.20;;;18.10;99.90;;;;;;7346822;32;20503;-62
2022/11/13 14:06:23;;;;;;;5.50;4.20;;;18.10;99.90;;;;;;7348490;32;20640;-61
2022/11/13 14:10:27;;;;;;;6.55;3.97;;;17.70;99.90;;;;;;7340429;32;20119;-62
2022/11/13 14:14:29;;;;;;;7.12;3.90;;;17.30;99.90;;;;;;7344248;32;20103;-62
2022/11/13 14:18:32;;;;;;;7.03;3.65;;;16.80;99.90;;;;;;7342074;32;20107;-62
2022/11/13 14:22:34;;;;;;;8.73;3.90;;;16.40;99.90;;;;;;7342723;32;20214;-60
2022/11/13 14:26:35;;;;;;;6.20;3.95;;;15.80;99.90;;;;;;7344987;32;20111;-60
2022/11/13 14:30:37;;;;;;;5.47;3.67;;;15.40;99.90;;;;;;7344947;32;20115;-61
2022/11/13 14:34:44;;;;;;;5.90;3.70;;;15.00;99.90;;;;;;7355779;32;20125;-61
2022/11/13 14:38:48;;;;;;;5.23;3.37;;;14.60;99.90;;;;;;7341519;32;20116;-60
2022/11/13 14:43:00;;;;;;;6.78;4.18;;;14.20;99.90;;;;;;7349452;32;20130;-61
2022/11/13 14:47:04;;;;;;;7.12;4.20;;;13.90;99.90;;;;;;7348327;32;20188;-60
2022/11/13 14:51:22;;;;;;;5.03;3.20;;;13.60;99.90;;;;;;7345229;32;20152;-61
2022/11/13 14:55:30;;;;;;;5.62;3.40;;;13.30;99.90;;;;;;7351095;32;20180;-61
2022/11/13 14:59:32;;;;;;;3.90;3.03;;;13.00;99.90;;;;;;7344638;32;20406;-61
2022/11/13 15:03:33;;;;;;;6.00;3.80;;;12.80;99.90;;;;;;7344282;32;20214;-61
2022/11/13 15:07:40;;;;;;;4.90;3.30;;;12.40;99.90;;;;;;7337185;32;20271;-61
2022/11/13 15:11:42;;;;;;;9.40;3.20;;;12.20;99.90;;;;;;7338895;32;20122;-64
2022/11/13 15:15:44;;;;;;;7.32;3.85;;;11.90;99.90;;;;;;7342604;32;20632;-61
2022/11/13 15:19:49;;;;;;;6.18;4.03;;;11.70;99.90;;;;;;7348986;32;20133;-62
2022/11/13 15:23:50;;;;;;;6.82;5.78;;;11.40;99.90;;;;;;7344967;32;20564;-64
2022/11/13 15:27:52;;;;;;;8.77;6.25;;;11.20;99.90;;;;;;7348344;32;20257;-60
2022/11/13 15:31:54;;;;;;;7.82;5.55;;;11.00;99.90;;;;;;7351871;32;20138;-61
2022/11/13 15:35:56;;;;;;;6.45;5.20;;;10.80;99.90;;;;;;7357020;32;20123;-61
2022/11/13 15:39:58;;;;;;;8.57;5.20;;;10.60;99.90;;;;;;7354662;32;20107;-61
2022/11/13 15:44:01;;;;;;;11.90;5.97;;;10.40;99.90;;;;;;7352261;32;20169;-61
2022/11/13 15:48:03;;;;;;;13.68;5.60;;;10.10;99.90;;;;;;7352816;32;20229;-62
2022/11/13 15:52:04;;;;;;;8.38;4.57;;;9.90;99.90;;;;;;7354746;32;20126;-61
2022/11/13 15:56:06;;;;;;;15.32;5.05;;;9.70;99.90;;;;;;7344581;32;20240;-60
2022/11/13 16:00:13;;;;;;;6.43;4.40;;;9.50;99.90;;;;;;7349922;32;20212;-60
2022/11/13 16:04:15;;;;;;;6.90;4.60;;;9.20;99.90;;;;;;7346654;32;20107;-60
2022/11/13 16:08:16;;;;;;;7.07;4.07;;;9.00;99.90;;;;;;7352524;32;20115;-60
2022/11/13 16:12:18;;;;;;;8.00;4.25;;;8.80;99.90;;;;;;7351933;32;20115;-60
2022/11/13 16:16:23;;;;;;;14.27;4.15;;;8.70;99.90;;;;;;7348592;32;20115;-61
2022/11/13 16:20:24;;;;;;;8.25;4.37;;;8.50;99.90;;;;;;7354160;32;20129;-60
2022/11/13 16:24:26;;;;;;;8.98;4.37;;;8.30;99.90;;;;;;7349290;32;20104;-58
2022/11/13 16:28:27;;;;;;;8.57;4.60;;;8.10;99.90;;;;;;7347901;32;20116;-58
2022/11/13 16:32:34;;;;;;;7.93;4.10;;;8.00;99.90;;;;;;7344036;32;20500;-58
2022/11/13 16:36:36;;;;;;;8.10;3.95;;;7.90;99.90;;;;;;7352126;32;20130;-58
2022/11/13 16:40:40;;;;;;;7.75;4.30;;;7.80;99.90;;;;;;7337166;32;20095;-58
2022/11/13 16:44:42;;;;;;;10.38;4.57;;;7.70;99.90;;;;;;7349294;32;20207;-60
2022/11/13 16:48:44;;;;;;;7.75;4.18;;;7.70;99.90;;;;;;7344138;32;20134;-58
2022/11/13 16:52:46;;;;;;;7.70;4.43;;;7.90;99.90;;;;;;7351893;32;20597;-58
2022/11/13 16:56:47;;;;;;;6.05;3.62;;;8.20;99.90;;;;;;7350056;32;20209;-58
2022/11/13 17:00:49;;;;;;;5.72;3.20;;;8.40;99.90;;;;;;7352279;32;20129;-58
2022/11/13 17:04:54;;;;;;;5.00;2.87;;;8.90;99.90;;;;;;7351932;32;20111;-58
2022/11/13 17:08:58;;;;;;;3.60;2.47;;;9.40;99.90;;;;;;7343550;32;20194;-59
2022/11/13 17:13:00;;;;;;;4.25;2.90;;;10.00;99.90;;;;;;7343929;32;20583;-58
2022/11/13 17:17:08;;;;;;;5.28;3.00;;;10.10;99.90;;;;;;7346273;32;20118;-59
2022/11/13 17:21:10;;;;;;;7.70;2.95;;;10.30;99.90;;;;;;7343251;32;20178;-58
2022/11/13 17:25:12;;;;;;;5.07;2.87;;;10.70;99.90;;;;;;7345399;32;20137;-59
2022/11/13 17:29:13;;;;;;;6.03;3.00;;;10.80;99.90;;;;;;7347680;32;20129;-59
2022/11/13 17:33:15;;;;;;;5.87;2.72;;;10.70;99.90;;;;;;7350828;32;20243;-59
2022/11/13 17:37:17;;;;;;;4.10;2.65;;;10.70;99.90;;;;;;7353518;32;20110;-59
2022/11/13 17:41:24;;;;;;;4.10;2.22;;;10.80;99.90;;;;;;7349656;32;20495;-59
2022/11/13 17:45:26;;;;;;;5.03;2.97;;;10.70;99.90;;;;;;7348469;32;20208;-59
2022/11/13 17:49:28;;;;;;;5.35;2.53;;;10.60;99.90;;;;;;7351930;32;20179;-59
2022/11/13 17:53:30;;;;;;;4.82;2.40;;;10.50;99.90;;;;;;7352382;32;20115;-59
2022/11/13 17:57:32;;;;;;;4.47;2.70;;;10.60;99.90;;;;;;7347518;32;20236;-60
2022/11/13 18:01:34;;;;;;;3.83;2.22;;;10.30;99.90;;;;;;7347963;32;20228;-58
2022/11/13 18:05:36;;;;;;;3.50;2.20;;;10.10;99.90;;;;;;7348168;32;20119;-58
2022/11/13 18:09:41;;;;;;;3.40;2.67;;;9.90;99.90;;;;;;7348675;32;20292;-59
2022/11/13 18:13:44;;;;;;;5.32;2.37;;;9.60;99.90;;;;;;7349582;32;20583;-58
2022/11/13 18:17:46;;;;;;;6.80;2.87;;;9.40;99.90;;;;;;7352351;32;20528;-58
2022/11/13 18:21:47;;;;;;;9.15;6.53;;;9.10;99.90;;;;;;7349196;32;20244;-59
2022/11/13 18:25:49;;;;;;;9.85;5.70;;;8.70;99.90;;;;;;7351878;32;20161;-59
2022/11/13 18:29:50;;;;;;;8.88;5.78;;;8.50;99.90;;;;;;7352330;32;20241;-59
2022/11/13 18:33:53;;;;;;;13.77;7.65;;;8.20;99.90;;;;;;7342448;32;20108;-59
2022/11/13 18:37:55;;;;;;;13.60;7.97;;;8.00;99.90;;;;;;7352232;32;20764;-57
2022/11/13 18:41:59;;;;;;;14.85;9.43;;;7.70;99.90;;;;;;7341789;32;20472;-58
2022/11/13 18:46:05;;;;;;;11.40;7.45;;;7.40;99.90;;;;;;7350129;32;20429;-57
2022/11/13 18:50:08;;;;;;;11.82;8.27;;;7.20;99.90;;;;;;7347943;32;20178;-58
2022/11/13 18:54:11;;;;;;;8.55;5.80;;;7.00;99.90;;;;;;7346957;32;20194;-60
2022/11/13 18:58:13;;;;;;;6.70;4.62;;;6.90;99.90;;;;;;7353975;32;20190;-58
2022/11/13 19:02:15;;;;;;;7.75;5.00;;;6.70;99.90;;;;;;7356189;32;20134;-58
2022/11/13 19:06:19;;;;;;;11.48;6.28;;;6.60;99.90;;;;;;7354092;32;20111;-58
2022/11/13 19:10:21;;;;;;;5.37;3.70;;;6.40;99.90;;;;;;7349905;32;20252;-59
2022/11/13 19:14:22;;;;;;;8.30;3.75;;;6.30;99.90;;;;;;7350225;32;20116;-58
2022/11/13 19:18:24;;;;;;;12.30;4.97;;;6.20;99.90;;;;;;7347558;32;20120;-57
2022/11/13 19:22:26;;;;;;;9.82;4.72;;;6.10;99.90;;;;;;7347776;32;20102;-59
2022/11/13 19:26:27;;;;;;;7.55;4.85;;;6.00;99.90;;;;;;7355464;32;20516;-59
2022/11/13 19:30:29;;;;;;;11.30;5.35;;;5.90;99.90;;;;;;7353810;32;20099;-59
2022/11/13 19:34:31;;;;;;;8.88;5.45;;;5.90;99.90;;;;;;7352409;32;20214;-61
2022/11/13 19:38:32;;;;;;;11.50;5.72;;;5.70;99.90;;;;;;7347479;32;20114;-59
2022/11/13 19:42:35;;;;;;;9.57;5.72;;;5.60;99.90;;;;;;7347320;32;20761;-61
2022/11/13 19:46:43;;;;;;;11.57;5.47;;;5.50;99.90;;;;;;7351421;32;20103;-59
2022/11/13 19:50:46;;;;;;;12.40;6.65;;;5.50;99.90;;;;;;7342498;32;20187;-60
2022/11/13 19:54:47;;;;;;;12.23;6.50;;;5.40;99.90;;;;;;7344380;32;20532;-60
2022/11/13 19:58:51;;;;;;;15.50;7.68;;;5.40;99.90;;;;;;7345910;32;20131;-59
2022/11/13 20:02:55;;;;;;;13.02;7.93;;;5.30;99.90;;;;;;7350964;32;20193;-59
2022/11/13 20:06:57;;;;;;;12.63;7.32;;;5.20;99.90;;;;;;7345845;32;20166;-59
2022/11/13 20:11:09;;;;;;;10.95;6.60;;;5.20;99.90;;;;;;7347570;32;20184;-59
2022/11/13 20:15:10;;;;;;;10.10;6.53;;;5.10;99.90;;;;;;7351395;32;20114;-60
2022/11/13 20:19:12;;;;;;;16.15;6.65;;;5.00;99.90;;;;;;7348272;32;20107;-59
2022/11/13 20:23:14;;;;;;;11.10;6.60;;;4.80;99.90;;;;;;7346119;32;20115;-60
2022/11/13 20:27:15;;;;;;;8.98;6.43;;;4.80;99.90;;;;;;7347380;32;20115;-60
2022/11/13 20:31:21;;;;;;;11.20;6.28;;;4.70;99.90;;;;;;7350569;32;20203;-59
2022/11/13 20:35:22;;;;;;;10.23;5.53;;;4.70;99.90;;;;;;7349123;32;20123;-59
2022/11/13 20:39:24;;;;;;;7.45;5.10;;;4.60;99.90;;;;;;7351368;32;20737;-60
2022/11/13 20:43:25;;;;;;;9.23;5.43;;;4.60;99.90;;;;;;7354040;32;20165;-59
2022/11/13 20:47:27;;;;;;;7.28;4.78;;;4.60;99.90;;;;;;7356176;32;20119;-59
2022/11/13 20:51:29;;;;;;;6.50;4.80;;;4.50;99.90;;;;;;7356931;32;20115;-59
2022/11/13 20:55:31;;;;;;;8.23;4.57;;;4.40;99.90;;;;;;7356757;32;20162;-60
2022/11/13 20:59:32;;;;;;;8.52;4.50;;;4.30;99.90;;;;;;7356186;32;20122;-59
2022/11/13 21:03:36;;;;;;;9.63;5.68;;;4.40;99.90;;;;;;7352614;32;20202;-59
2022/11/13 21:07:42;;;;;;;10.18;5.43;;;4.40;99.90;;;;;;7350694;32;20107;-59
2022/11/13 21:11:43;;;;;;;8.07;4.40;;;4.30;99.90;;;;;;7353700;32;20221;-60
2022/11/13 21:15:45;;;;;;;7.80;4.47;;;4.30;99.90;;;;;;7354523;32;20248;-59
2022/11/13 21:19:47;;;;;;;7.15;4.10;;;4.30;99.90;;;;;;7352636;32;20522;-59
2022/11/13 21:23:48;;;;;;;7.70;4.03;;;4.20;99.90;;;;;;7346466;32;20498;-60
2022/11/13 21:27:53;;;;;;;6.28;4.00;;;4.20;99.90;;;;;;7347684;32;20125;-60
2022/11/13 21:31:55;;;;;;;8.48;3.80;;;4.30;99.90;;;;;;7351399;32;20111;-59
2022/11/13 21:36:03;;;;;;;6.10;4.03;;;4.20;99.90;;;;;;7354435;32;20136;-59